Time;durP1;ratioP1;P1;durP2;ratioP2;P2;SDS_P1;SDS_P2;PMS_P1;PMS_P2;Temp;Humidity;BMP_temperature;BMP_pressure;BME280_temperature;BME280_humidity;BME280_pressure;Samples;Min_cycle;Max_cycle;Signal;HPM_P1;HPM_P2
2023/12/02 00:02:19;;;;;;;10.00;8.40;;;;;;;;;;5016372;28;20307;-59
2023/12/02 00:04:47;;;;;;;9.20;7.63;;;;;;;;;;5017074;28;20268;-59
2023/12/02 00:07:15;;;;;;;8.20;7.20;;;;;;;;;;5016580;28;20230;-59
2023/12/02 00:09:42;;;;;;;8.85;7.40;;;;;;;;;;5017123;28;20242;-59
2023/12/02 00:12:10;;;;;;;7.75;6.78;;;;;;;;;;5016829;28;20309;-60
2023/12/02 00:14:37;;;;;;;8.95;7.35;;;;;;;;;;5017043;28;20206;-60
2023/12/02 00:17:05;;;;;;;8.52;7.15;;;;;;;;;;5016749;28;20214;-60
2023/12/02 00:19:34;;;;;;;7.93;7.13;;;;;;;;;;5017374;28;20506;-60
2023/12/02 00:22:03;;;;;;;9.10;7.45;;;;;;;;;;5017054;28;20276;-60
2023/12/02 00:24:30;;;;;;;7.95;6.90;;;;;;;;;;5017210;28;20657;-60
2023/12/02 00:26:58;;;;;;;8.23;7.32;;;;;;;;;;5016722;28;20234;-60
2023/12/02 00:29:25;;;;;;;7.80;6.95;;;;;;;;;;5017018;28;20357;-60
2023/12/02 00:31:53;;;;;;;8.38;7.05;;;;;;;;;;5019751;28;20214;-60
2023/12/02 00:34:20;;;;;;;7.85;7.05;;;;;;;;;;5020419;28;20207;-60
2023/12/02 00:36:50;;;;;;;8.32;7.43;;;;;;;;;;5020117;28;20249;-60
2023/12/02 00:39:17;;;;;;;7.32;6.63;;;;;;;;;;5020078;28;20207;-60
2023/12/02 00:41:45;;;;;;;9.00;6.95;;;;;;;;;;5020233;28;20301;-60
2023/12/02 00:44:13;;;;;;;8.32;7.10;;;;;;;;;;5020427;28;20245;-60
2023/12/02 00:46:41;;;;;;;7.45;6.65;;;;;;;;;;5020170;28;20257;-60
2023/12/02 00:49:09;;;;;;;7.93;6.90;;;;;;;;;;5020471;28;20297;-60
2023/12/02 00:51:36;;;;;;;9.00;7.03;;;;;;;;;;5020436;28;20237;-60
2023/12/02 00:54:05;;;;;;;7.93;7.13;;;;;;;;;;5019939;28;20206;-60
2023/12/02 00:56:33;;;;;;;7.57;6.78;;;;;;;;;;5020200;28;20206;-60
2023/12/02 00:59:01;;;;;;;7.38;6.53;;;;;;;;;;5019924;28;20265;-60
2023/12/02 01:01:28;;;;;;;8.30;7.05;;;;;;;;;;5019663;28;20212;-60
2023/12/02 01:03:55;;;;;;;8.32;7.40;;;;;;;;;;5019761;28;20206;-60
2023/12/02 01:06:23;;;;;;;7.15;6.45;;;;;;;;;;5019528;28;20233;-60
2023/12/02 01:08:51;;;;;;;7.88;6.60;;;;;;;;;;5019887;28;20674;-60
2023/12/02 01:11:20;;;;;;;8.52;6.68;;;;;;;;;;5020044;28;20210;-60
2023/12/02 01:13:47;;;;;;;7.63;6.70;;;;;;;;;;5019755;28;20269;-60
2023/12/02 01:16:14;;;;;;;7.95;7.15;;;;;;;;;;5019425;28;20639;-60
2023/12/02 01:18:42;;;;;;;7.93;7.13;;;;;;;;;;5019568;28;20661;-60
2023/12/02 01:21:10;;;;;;;7.90;7.10;;;;;;;;;;5019893;28;20293;-60
2023/12/02 01:23:37;;;;;;;7.63;6.82;;;;;;;;;;5019780;28;20308;-60
2023/12/02 01:26:05;;;;;;;7.00;6.30;;;;;;;;;;5019375;28;20210;-60
2023/12/02 01:28:34;;;;;;;8.23;6.82;;;;;;;;;;5019352;28;20282;-60
2023/12/02 01:31:01;;;;;;;7.65;6.88;;;;;;;;;;5019358;28;20272;-60
2023/12/02 01:33:29;;;;;;;7.65;6.85;;;;;;;;;;5019560;28;20233;-60
2023/12/02 01:35:56;;;;;;;7.10;6.40;;;;;;;;;;5019333;28;20218;-60
2023/12/02 01:38:24;;;;;;;6.88;6.20;;;;;;;;;;5018939;28;20272;-60
2023/12/02 01:40:51;;;;;;;7.78;6.55;;;;;;;;;;5019554;28;20214;-60
2023/12/02 01:43:24;;;;;;;7.60;6.80;;;;;;;;;;5019098;28;20214;-60
2023/12/02 01:45:54;;;;;;;7.03;6.32;;;;;;;;;;5019143;28;20301;-60
2023/12/02 01:48:21;;;;;;;7.72;6.35;;;;;;;;;;5018798;28;20241;-60
2023/12/02 01:50:49;;;;;;;7.35;6.20;;;;;;;;;;5019185;28;20234;-60
2023/12/02 01:53:17;;;;;;;7.55;6.72;;;;;;;;;;5018789;28;20218;-60
2023/12/02 01:55:45;;;;;;;7.88;6.65;;;;;;;;;;5019199;28;20206;-60
2023/12/02 01:58:12;;;;;;;6.82;6.15;;;;;;;;;;5019162;28;20214;-60
2023/12/02 02:00:40;;;;;;;6.97;6.22;;;;;;;;;;5018505;28;20213;-60
2023/12/02 02:03:09;;;;;;;8.73;6.28;;;;;;;;;;5018724;28;20229;-60
2023/12/02 02:05:37;;;;;;;6.47;5.57;;;;;;;;;;5018501;28;20614;-60
2023/12/02 02:08:05;;;;;;;6.60;6.00;;;;;;;;;;5018530;28;20276;-60
2023/12/02 02:10:33;;;;;;;7.05;6.35;;;;;;;;;;5018601;28;20210;-60
2023/12/02 02:13:00;;;;;;;7.40;6.25;;;;;;;;;;5018810;28;20473;-60
2023/12/02 02:15:28;;;;;;;6.88;6.10;;;;;;;;;;5018761;28;20249;-60
2023/12/02 02:17:55;;;;;;;6.60;5.80;;;;;;;;;;5018622;28;20202;-60
2023/12/02 02:20:25;;;;;;;6.35;5.75;;;;;;;;;;5018528;28;20296;-60
2023/12/02 02:22:54;;;;;;;7.00;6.30;;;;;;;;;;5018308;28;20249;-60
2023/12/02 02:25:22;;;;;;;7.15;6.32;;;;;;;;;;5018574;28;20743;-60
2023/12/02 02:27:49;;;;;;;7.32;6.50;;;;;;;;;;5018417;28;20226;-59
2023/12/02 02:30:17;;;;;;;6.55;5.90;;;;;;;;;;5018063;28;20599;-59
2023/12/02 02:32:45;;;;;;;7.20;5.82;;;;;;;;;;5018450;28;20217;-59
2023/12/02 02:35:13;;;;;;;6.78;6.07;;;;;;;;;;5018387;28;20206;-59
2023/12/02 02:37:40;;;;;;;6.45;5.82;;;;;;;;;;5017113;28;20234;-59
2023/12/02 02:40:10;;;;;;;6.55;5.85;;;;;;;;;;5018500;28;20216;-59
2023/12/02 02:42:38;;;;;;;6.90;6.07;;;;;;;;;;5018404;28;20221;-59
2023/12/02 02:45:06;;;;;;;6.22;5.63;;;;;;;;;;5017917;28;20305;-59
2023/12/02 02:47:34;;;;;;;6.47;5.60;;;;;;;;;;5017932;28;20602;-59
2023/12/02 02:50:02;;;;;;;6.22;5.63;;;;;;;;;;5018205;28;20206;-59
2023/12/02 02:52:30;;;;;;;5.85;5.25;;;;;;;;;;5017960;28;20233;-59
2023/12/02 02:54:58;;;;;;;5.50;5.00;;;;;;;;;;5017268;28;20233;-59
2023/12/02 02:57:27;;;;;;;6.25;5.60;;;;;;;;;;5018039;28;20507;-59
2023/12/02 02:59:55;;;;;;;6.03;5.40;;;;;;;;;;5017805;28;20305;-59
2023/12/02 03:02:23;;;;;;;6.75;6.05;;;;;;;;;;5017886;28;20234;-59
2023/12/02 03:04:51;;;;;;;6.40;5.80;;;;;;;;;;5017773;28;20214;-59
2023/12/02 03:07:18;;;;;;;5.88;5.28;;;;;;;;;;5017739;28;20237;-59
2023/12/02 03:09:46;;;;;;;6.03;5.43;;;;;;;;;;5017858;28;20214;-59
2023/12/02 03:12:14;;;;;;;5.95;5.35;;;;;;;;;;5018075;28;20234;-59
2023/12/02 03:14:43;;;;;;;5.50;5.00;;;;;;;;;;5017885;28;20566;-59
2023/12/02 03:17:11;;;;;;;6.20;5.60;;;;;;;;;;5017289;28;20272;-59
2023/12/02 03:19:38;;;;;;;6.05;5.45;;;;;;;;;;5017830;28;20289;-59
2023/12/02 03:22:06;;;;;;;6.15;5.55;;;;;;;;;;5017754;28;20213;-59
2023/12/02 03:24:33;;;;;;;6.32;5.68;;;;;;;;;;5017342;28;20600;-59
2023/12/02 03:27:02;;;;;;;5.75;5.15;;;;;;;;;;5017793;28;20206;-59
2023/12/02 03:29:30;;;;;;;6.00;5.40;;;;;;;;;;5017521;28;20230;-59
2023/12/02 03:31:59;;;;;;;5.78;5.18;;;;;;;;;;5017580;28;20217;-59
2023/12/02 03:34:27;;;;;;;5.97;5.38;;;;;;;;;;5017707;28;20470;-59
2023/12/02 03:36:55;;;;;;;6.50;5.32;;;;;;;;;;5017408;28;20234;-59
2023/12/02 03:39:23;;;;;;;5.68;5.15;;;;;;;;;;5017277;28;20213;-59
2023/12/02 03:41:51;;;;;;;5.72;5.13;;;;;;;;;;5017494;28;20206;-59
2023/12/02 03:44:19;;;;;;;6.22;5.45;;;;;;;;;;5017609;28;20206;-59
2023/12/02 03:46:46;;;;;;;7.45;5.68;;;;;;;;;;5017662;28;20213;-59
2023/12/02 03:49:15;;;;;;;5.68;5.10;;;;;;;;;;5017149;28;20680;-59
2023/12/02 03:51:43;;;;;;;6.43;5.60;;;;;;;;;;5017257;28;20238;-59
2023/12/02 03:54:11;;;;;;;6.45;5.70;;;;;;;;;;5017459;28;20292;-59
2023/12/02 03:56:40;;;;;;;5.75;5.20;;;;;;;;;;5017486;28;20279;-59
2023/12/02 03:59:07;;;;;;;5.97;5.38;;;;;;;;;;5017493;28;20210;-59
2023/12/02 04:01:36;;;;;;;5.90;5.30;;;;;;;;;;5017598;28;20206;-59
2023/12/02 04:04:03;;;;;;;5.63;5.13;;;;;;;;;;5017449;28;20206;-59
2023/12/02 04:06:32;;;;;;;5.85;5.30;;;;;;;;;;5021172;28;20268;-59
2023/12/02 04:09:01;;;;;;;6.18;5.47;;;;;;;;;;5020642;28;20237;-59
2023/12/02 04:11:28;;;;;;;5.28;4.78;;;;;;;;;;5020922;28;20214;-59
2023/12/02 04:13:56;;;;;;;5.75;5.22;;;;;;;;;;5021017;28;20233;-59
2023/12/02 04:16:24;;;;;;;5.75;5.15;;;;;;;;;;5020811;28;20207;-59
2023/12/02 04:18:51;;;;;;;5.80;5.07;;;;;;;;;;5020614;28;20202;-59
2023/12/02 04:21:19;;;;;;;5.55;5.05;;;;;;;;;;5020975;28;20249;-59
2023/12/02 04:23:48;;;;;;;6.25;5.65;;;;;;;;;;5020860;28;20260;-59
2023/12/02 04:26:16;;;;;;;5.50;5.00;;;;;;;;;;5020590;28;20321;-59
2023/12/02 04:28:43;;;;;;;5.28;4.78;;;;;;;;;;5020859;28;20218;-59
2023/12/02 04:31:10;;;;;;;6.30;5.38;;;;;;;;;;5020672;28;20214;-59
2023/12/02 04:33:38;;;;;;;5.28;4.78;;;;;;;;;;5020637;28;20217;-59
2023/12/02 04:36:08;;;;;;;6.10;5.50;;;;;;;;;;5020750;28;20214;-59
2023/12/02 04:38:35;;;;;;;5.68;5.10;;;;;;;;;;5020413;28;20206;-59
2023/12/02 04:41:05;;;;;;;5.43;4.93;;;;;;;;;;5019822;28;20594;-60
2023/12/02 04:43:32;;;;;;;5.82;5.28;;;;;;;;;;5020444;28;20207;-60
2023/12/02 04:45:59;;;;;;;5.80;5.20;;;;;;;;;;5020314;28;20206;-59
2023/12/02 04:48:27;;;;;;;6.30;5.70;;;;;;;;;;5019811;28;20237;-59
2023/12/02 04:50:54;;;;;;;5.70;5.10;;;;;;;;;;5019616;28;20206;-59
2023/12/02 04:53:21;;;;;;;5.85;5.18;;;;;;;;;;5019962;28;20214;-59
2023/12/02 04:55:48;;;;;;;5.20;4.70;;;;;;;;;;5019577;28;20214;-59
2023/12/02 04:58:17;;;;;;;6.32;5.03;;;;;;;;;;5019862;28;20590;-59
2023/12/02 05:00:45;;;;;;;5.22;4.72;;;;;;;;;;5020067;28;20278;-59
2023/12/02 05:03:17;;;;;;;5.47;4.70;;;;;;;;;;5019570;28;20210;-59
2023/12/02 05:05:44;;;;;;;5.43;4.88;;;;;;;;;;5019722;28;20218;-59
2023/12/02 05:08:11;;;;;;;5.40;4.88;;;;;;;;;;5019301;28;20214;-59
2023/12/02 05:10:38;;;;;;;5.80;5.03;;;;;;;;;;5019768;28;20206;-59
2023/12/02 05:13:06;;;;;;;5.28;4.78;;;;;;;;;;5019507;28;20210;-59
2023/12/02 05:15:35;;;;;;;5.18;4.68;;;;;;;;;;5019344;28;20269;-59
2023/12/02 05:18:03;;;;;;;6.25;5.28;;;;;;;;;;5019234;28;20198;-59
2023/12/02 05:20:30;;;;;;;5.22;4.72;;;;;;;;;;5019691;28;20264;-59
2023/12/02 05:22:58;;;;;;;5.90;5.30;;;;;;;;;;5019477;28;20210;-59
2023/12/02 05:25:25;;;;;;;5.00;4.50;;;;;;;;;;5019468;28;20217;-59
2023/12/02 05:27:52;;;;;;;5.70;5.20;;;;;;;;;;5019727;28;20206;-59
2023/12/02 05:30:20;;;;;;;4.75;4.35;;;;;;;;;;5019573;28;20266;-59
2023/12/02 05:32:51;;;;;;;5.78;4.90;;;;;;;;;;5019109;28;20214;-59
2023/12/02 05:35:21;;;;;;;5.30;4.80;;;;;;;;;;5018996;28;20305;-59
2023/12/02 05:37:50;;;;;;;5.15;4.65;;;;;;;;;;5019368;28;20242;-59
2023/12/02 05:40:18;;;;;;;5.47;4.95;;;;;;;;;;5019248;28;20203;-59
2023/12/02 05:42:45;;;;;;;5.53;5.03;;;;;;;;;;5018994;28;20244;-59
2023/12/02 05:45:13;;;;;;;4.80;4.32;;;;;;;;;;5018404;28;20217;-59
2023/12/02 05:47:40;;;;;;;5.57;4.95;;;;;;;;;;5018761;28;20206;-59
2023/12/02 05:50:09;;;;;;;6.18;5.15;;;;;;;;;;5018791;28;20328;-59
2023/12/02 05:52:37;;;;;;;5.45;4.93;;;;;;;;;;5018791;28;20551;-59
2023/12/02 05:55:04;;;;;;;5.22;4.70;;;;;;;;;;5018907;28;20237;-59
2023/12/02 05:57:32;;;;;;;6.40;5.80;;;;;;;;;;5018857;28;20463;-59
2023/12/02 06:00:00;;;;;;;5.60;5.00;;;;;;;;;;5018539;28;20594;-59
2023/12/02 06:02:27;;;;;;;5.88;5.28;;;;;;;;;;5018818;28;20486;-59
2023/12/02 06:04:55;;;;;;;6.32;5.18;;;;;;;;;;5018888;28;20206;-59
2023/12/02 06:07:23;;;;;;;5.80;5.28;;;;;;;;;;5018763;28;20210;-59
2023/12/02 06:09:51;;;;;;;5.82;5.22;;;;;;;;;;5018649;28;20230;-59
2023/12/02 06:12:18;;;;;;;5.50;5.00;;;;;;;;;;5018441;28;20708;-59
2023/12/02 06:14:46;;;;;;;5.70;5.10;;;;;;;;;;5018785;28;20486;-59
2023/12/02 06:17:13;;;;;;;5.57;5.03;;;;;;;;;;5018550;28;20207;-59
2023/12/02 06:19:40;;;;;;;5.85;5.25;;;;;;;;;;5018578;28;20202;-59
2023/12/02 06:22:07;;;;;;;5.60;5.05;;;;;;;;;;5018429;28;20234;-59
2023/12/02 06:24:36;;;;;;;5.47;4.97;;;;;;;;;;5018061;28;20215;-59
2023/12/02 06:27:04;;;;;;;5.63;4.72;;;;;;;;;;5018442;28;20206;-59
2023/12/02 06:29:31;;;;;;;5.75;5.00;;;;;;;;;;5017060;28;20235;-59
2023/12/02 06:31:58;;;;;;;5.03;4.53;;;;;;;;;;5018373;28;20214;-59
2023/12/02 06:34:26;;;;;;;5.30;4.80;;;;;;;;;;5018177;28;20206;-59
2023/12/02 06:36:54;;;;;;;5.22;4.72;;;;;;;;;;5017752;28;20245;-59
2023/12/02 06:39:22;;;;;;;5.40;4.90;;;;;;;;;;5017823;28;20701;-59
2023/12/02 06:41:50;;;;;;;5.75;5.15;;;;;;;;;;5018077;28;20523;-59
2023/12/02 06:44:18;;;;;;;5.55;5.05;;;;;;;;;;5017898;28;20213;-59
2023/12/02 06:46:45;;;;;;;6.60;5.70;;;;;;;;;;5017843;28;20233;-60
2023/12/02 06:49:13;;;;;;;5.25;4.75;;;;;;;;;;5017500;28;20237;-60
2023/12/02 06:51:40;;;;;;;5.38;4.78;;;;;;;;;;5017637;28;20214;-60
2023/12/02 06:54:08;;;;;;;5.40;4.90;;;;;;;;;;5017755;28;20206;-60
2023/12/02 06:56:35;;;;;;;5.20;4.70;;;;;;;;;;5017684;28;20261;-60
2023/12/02 06:59:04;;;;;;;5.68;4.93;;;;;;;;;;5017863;28;20210;-60
2023/12/02 07:01:31;;;;;;;5.25;4.75;;;;;;;;;;5017708;28;20233;-59
2023/12/02 07:03:59;;;;;;;5.38;4.88;;;;;;;;;;5018308;28;20206;-59
2023/12/02 07:06:29;;;;;;;5.75;5.25;;;;;;;;;;5017690;28;20206;-59
2023/12/02 07:08:58;;;;;;;5.22;4.72;;;;;;;;;;5017630;28;20264;-59
2023/12/02 07:11:26;;;;;;;5.60;5.00;;;;;;;;;;5017620;28;20206;-59
2023/12/02 07:13:53;;;;;;;6.13;5.53;;;;;;;;;;5017663;28;20868;-59
2023/12/02 07:16:22;;;;;;;5.07;4.57;;;;;;;;;;5017730;28;20486;-59
2023/12/02 07:18:49;;;;;;;5.25;4.75;;;;;;;;;;5017603;28;20207;-59
2023/12/02 07:21:17;;;;;;;5.55;4.93;;;;;;;;;;5017383;28;20594;-59
2023/12/02 07:23:44;;;;;;;6.15;4.90;;;;;;;;;;5016999;28;20501;-59
2023/12/02 07:26:12;;;;;;;5.25;4.75;;;;;;;;;;5017288;28;20202;-60
2023/12/02 07:28:40;;;;;;;5.35;4.85;;;;;;;;;;5017389;28;20210;-60
2023/12/02 07:31:07;;;;;;;5.85;5.22;;;;;;;;;;5016984;28;20486;-59
2023/12/02 07:33:36;;;;;;;5.55;5.00;;;;;;;;;;5017012;28;20206;-59
2023/12/02 07:36:04;;;;;;;5.85;5.13;;;;;;;;;;5017214;28;20214;-59
2023/12/02 07:38:31;;;;;;;5.55;5.05;;;;;;;;;;5016880;28;20578;-59
2023/12/02 07:40:58;;;;;;;6.00;5.40;;;;;;;;;;5020433;28;20228;-59
2023/12/02 07:43:25;;;;;;;6.07;5.45;;;;;;;;;;5020868;28;20206;-59
2023/12/02 07:45:53;;;;;;;9.27;7.28;;;;;;;;;;5021330;28;20209;-59
2023/12/02 07:48:20;;;;;;;9.75;7.95;;;;;;;;;;5021246;28;20210;-59
2023/12/02 07:50:49;;;;;;;12.00;8.85;;;;;;;;;;5020670;28;20229;-59
2023/12/02 07:53:16;;;;;;;12.25;8.65;;;;;;;;;;5019728;28;20206;-59
2023/12/02 07:55:44;;;;;;;10.90;8.90;;;;;;;;;;5020845;28;20214;-59
2023/12/02 07:58:11;;;;;;;11.43;9.02;;;;;;;;;;5020641;28;20218;-59
2023/12/02 08:00:38;;;;;;;10.77;8.60;;;;;;;;;;5019999;28;20194;-59
2023/12/02 08:03:06;;;;;;;11.02;8.82;;;;;;;;;;5020474;28;20209;-59
2023/12/02 08:05:33;;;;;;;10.60;8.55;;;;;;;;;;5020474;28;20222;-59
2023/12/02 08:08:03;;;;;;;10.50;8.35;;;;;;;;;;5020131;28;20214;-59
2023/12/02 08:10:30;;;;;;;10.27;8.27;;;;;;;;;;5020523;28;20233;-59
2023/12/02 08:12:57;;;;;;;12.75;9.02;;;;;;;;;;5020415;28;20218;-59
2023/12/02 08:15:25;;;;;;;9.75;8.48;;;;;;;;;;5019679;28;20217;-59
2023/12/02 08:17:53;;;;;;;11.43;8.35;;;;;;;;;;5020224;28;20533;-59
2023/12/02 08:20:20;;;;;;;10.57;8.55;;;;;;;;;;5020184;28;20206;-59
2023/12/02 08:22:48;;;;;;;10.38;8.45;;;;;;;;;;5019906;28;20579;-59
2023/12/02 08:25:16;;;;;;;10.55;8.10;;;;;;;;;;5020204;28;20207;-59
2023/12/02 08:27:44;;;;;;;11.18;8.10;;;;;;;;;;5020447;28;20214;-59
2023/12/02 08:30:12;;;;;;;10.32;8.50;;;;;;;;;;5019640;28;20230;-59
2023/12/02 08:32:39;;;;;;;11.35;8.43;;;;;;;;;;5019616;28;20207;-59
2023/12/02 08:35:07;;;;;;;10.05;8.48;;;;;;;;;;5019612;28;20206;-59
2023/12/02 08:37:34;;;;;;;11.15;8.57;;;;;;;;;;5019168;28;20244;-59
2023/12/02 08:40:05;;;;;;;11.05;8.82;;;;;;;;;;5019233;28;20213;-59
2023/12/02 08:42:34;;;;;;;10.95;8.45;;;;;;;;;;5019075;28;20269;-60
2023/12/02 08:45:03;;;;;;;9.65;7.78;;;;;;;;;;5019506;28;20206;-60
2023/12/02 08:47:31;;;;;;;8.45;7.30;;;;;;;;;;5019585;28;20678;-59
2023/12/02 08:49:58;;;;;;;18.58;16.73;;;;;;;;;;5018995;28;20332;-59
2023/12/02 08:52:25;;;;;;;66.75;61.38;;;;;;;;;;5018161;28;20206;-59
2023/12/02 08:54:53;;;;;;;50.17;45.90;;;;;;;;;;5019571;28;20726;-59
2023/12/02 08:57:20;;;;;;;45.88;41.80;;;;;;;;;;5019684;28;20210;-59
2023/12/02 08:59:49;;;;;;;44.33;40.45;;;;;;;;;;5018535;28;20214;-59
2023/12/02 09:02:16;;;;;;;43.35;39.45;;;;;;;;;;5018650;28;20206;-59
2023/12/02 09:04:44;;;;;;;43.25;39.47;;;;;;;;;;5018804;28;20486;-59
2023/12/02 09:07:11;;;;;;;40.67;37.08;;;;;;;;;;5018729;28;20206;-59
2023/12/02 09:09:39;;;;;;;41.70;38.03;;;;;;;;;;5018728;28;20329;-59
2023/12/02 09:12:07;;;;;;;40.97;37.47;;;;;;;;;;5018082;28;20205;-60
2023/12/02 09:14:34;;;;;;;41.80;38.30;;;;;;;;;;5017259;28;20509;-60
2023/12/02 09:17:04;;;;;;;40.15;36.67;;;;;;;;;;5018077;28;20206;-60
2023/12/02 09:19:45;;;;;;;37.53;34.42;;;;;;;;;;5018313;28;20213;-60
2023/12/02 09:22:20;;;;;;;39.50;36.20;;;;;;;;;;5016872;28;20202;-60
2023/12/02 09:24:47;;;;;;;37.65;34.45;;;;;;;;;;5017958;28;20205;-60
2023/12/02 09:27:38;;;;;;;36.85;33.75;;;;;;;;;;5018074;28;20217;-60
2023/12/02 09:30:08;;;;;;;36.15;32.85;;;;;;;;;;5017810;28;20234;-60
2023/12/02 09:32:47;;;;;;;34.92;32.03;;;;;;;;;;5018026;28;20272;-59
2023/12/02 09:35:14;;;;;;;35.10;31.98;;;;;;;;;;5018503;28;20217;-60
2023/12/02 09:37:54;;;;;;;33.63;30.73;;;;;;;;;;5018516;28;20242;-59
2023/12/02 09:40:35;;;;;;;32.03;29.05;;;;;;;;;;5018149;28;20226;-59
2023/12/02 09:43:11;;;;;;;33.63;30.63;;;;;;;;;;5017761;28;20217;-59
2023/12/02 09:45:41;;;;;;;32.45;29.30;;;;;;;;;;5018378;28;20621;-60
2023/12/02 09:48:15;;;;;;;30.98;28.40;;;;;;;;;;5017885;28;20618;-60
2023/12/02 09:50:45;;;;;;;30.25;27.55;;;;;;;;;;5017929;28;20698;-60
2023/12/02 09:53:17;;;;;;;30.75;28.05;;;;;;;;;;5017947;28;20206;-60
2023/12/02 09:55:46;;;;;;;29.90;27.20;;;;;;;;;;5017575;28;20207;-60
2023/12/02 09:58:21;;;;;;;29.25;26.75;;;;;;;;;;5017698;28;20495;-60
2023/12/02 10:00:51;;;;;;;28.55;25.95;;;;;;;;;;5017372;28;20217;-59
2023/12/02 10:03:37;;;;;;;27.92;25.42;;;;;;;;;;5017011;28;20248;-59
2023/12/02 10:06:08;;;;;;;26.92;24.52;;;;;;;;;;5017529;28;20564;-59
2023/12/02 10:08:41;;;;;;;26.33;24.13;;;;;;;;;;5017650;28;20582;-61
2023/12/02 10:11:12;;;;;;;25.75;23.55;;;;;;;;;;5016733;28;20222;-59
2023/12/02 10:13:45;;;;;;;26.05;23.77;;;;;;;;;;5017476;28;20206;-59
2023/12/02 10:16:15;;;;;;;25.77;23.58;;;;;;;;;;5016891;28;20587;-59
2023/12/02 10:18:49;;;;;;;25.92;23.65;;;;;;;;;;5017329;28;20260;-59
2023/12/02 10:21:18;;;;;;;24.27;22.17;;;;;;;;;;5016602;28;20213;-59
2023/12/02 10:23:50;;;;;;;22.73;20.73;;;;;;;;;;5017138;28;20206;-60
2023/12/02 10:26:20;;;;;;;22.83;20.83;;;;;;;;;;5016255;28;20550;-61
2023/12/02 10:28:51;;;;;;;22.95;20.95;;;;;;;;;;5016636;28;20210;-60
2023/12/02 10:31:25;;;;;;;22.23;20.33;;;;;;;;;;5017196;28;20252;-60
2023/12/02 10:33:58;;;;;;;21.75;19.85;;;;;;;;;;5015443;28;20234;-60
2023/12/02 10:36:28;;;;;;;21.70;19.80;;;;;;;;;;5012322;28;20257;-60
2023/12/02 10:39:02;;;;;;;21.20;19.40;;;;;;;;;;4976926;28;20239;-59
2023/12/02 10:41:35;;;;;;;20.30;18.55;;;;;;;;;;4976838;28;20206;-60
2023/12/02 10:44:04;;;;;;;22.23;20.23;;;;;;;;;;4976639;28;20211;-60
2023/12/02 10:46:33;;;;;;;20.35;18.58;;;;;;;;;;4977038;28;20212;-60
2023/12/02 10:49:03;;;;;;;20.50;18.77;;;;;;;;;;4977303;28;20207;-60
2023/12/02 10:51:32;;;;;;;19.17;17.58;;;;;;;;;;4977224;28;20263;-60
2023/12/02 10:54:01;;;;;;;19.92;18.25;;;;;;;;;;4977151;28;20237;-60
2023/12/02 10:56:32;;;;;;;19.05;17.45;;;;;;;;;;4976693;28;20222;-60
2023/12/02 10:59:01;;;;;;;19.27;17.58;;;;;;;;;;4976955;28;20215;-60
2023/12/02 11:01:33;;;;;;;18.13;16.42;;;;;;;;;;4977461;28;20204;-61
2023/12/02 11:04:07;;;;;;;17.35;15.85;;;;;;;;;;4976100;28;20207;-60
2023/12/02 11:06:38;;;;;;;17.17;15.55;;;;;;;;;;4976170;28;20210;-60
2023/12/02 11:09:10;;;;;;;23.55;20.67;;;;;;;;;;4976995;28;20208;-60
2023/12/02 11:11:46;;;;;;;20.88;18.63;;;;;;;;;;4976331;28;20238;-60
2023/12/02 11:14:16;;;;;;;20.38;18.25;;;;;;;;;;4976401;28;20202;-60
2023/12/02 11:16:48;;;;;;;23.27;21.08;;;;;;;;;;4976776;28;20227;-58
2023/12/02 11:19:24;;;;;;;28.73;25.88;;;;;;;;;;4976514;28;20600;-60
2023/12/02 11:21:59;;;;;;;25.05;22.65;;;;;;;;;;4976825;28;20242;-61
2023/12/02 11:24:34;;;;;;;24.45;22.05;;;;;;;;;;4976298;28;20504;-61
2023/12/02 11:27:06;;;;;;;23.73;21.33;;;;;;;;;;4976600;28;20506;-60
2023/12/02 11:29:37;;;;;;;23.05;20.70;;;;;;;;;;4975849;28;20250;-60
2023/12/02 11:32:16;;;;;;;22.58;20.42;;;;;;;;;;4976456;28;20265;-60
2023/12/02 11:34:51;;;;;;;23.55;21.25;;;;;;;;;;4976069;28;20202;-60
2023/12/02 11:37:24;;;;;;;23.10;20.77;;;;;;;;;;4976001;28;20231;-60
2023/12/02 11:39:57;;;;;;;29.15;26.38;;;;;;;;;;4976642;28;20218;-60
2023/12/02 11:42:27;;;;;;;26.42;23.92;;;;;;;;;;4975934;28;20266;-60
2023/12/02 11:45:04;;;;;;;24.80;22.42;;;;;;;;;;4976046;28;20526;-60
2023/12/02 11:47:39;;;;;;;24.33;21.92;;;;;;;;;;4975868;28;20222;-60
2023/12/02 11:50:28;;;;;;;23.95;21.75;;;;;;;;;;4975945;28;20207;-60
2023/12/02 11:53:06;;;;;;;23.58;21.48;;;;;;;;;;4975869;28;20554;-60
2023/12/02 11:55:36;;;;;;;23.90;21.63;;;;;;;;;;4976086;28;20278;-60
2023/12/02 11:58:11;;;;;;;22.42;20.42;;;;;;;;;;4975585;28;20215;-60
2023/12/02 12:00:48;;;;;;;22.25;20.15;;;;;;;;;;4975883;28;20204;-60
2023/12/02 12:03:21;;;;;;;20.77;18.80;;;;;;;;;;4975968;28;20235;-60
2023/12/02 12:05:54;;;;;;;20.98;18.90;;;;;;;;;;4974924;28;20207;-60
2023/12/02 12:08:24;;;;;;;19.55;17.65;;;;;;;;;;4975624;28;20211;-60
2023/12/02 12:10:53;;;;;;;19.58;17.63;;;;;;;;;;4974959;28;20234;-60
2023/12/02 12:13:21;;;;;;;19.80;18.00;;;;;;;;;;4975780;28;20223;-60
2023/12/02 12:15:49;;;;;;;19.17;17.23;;;;;;;;;;4975874;28;20328;-60
2023/12/02 12:18:17;;;;;;;19.00;17.20;;;;;;;;;;4975907;28;20208;-60
2023/12/02 12:20:46;;;;;;;18.85;16.92;;;;;;;;;;4976289;28;20208;-60
2023/12/02 12:23:13;;;;;;;17.15;15.55;;;;;;;;;;4976074;28;20709;-60
2023/12/02 12:25:43;;;;;;;17.20;15.55;;;;;;;;;;4975962;28;20218;-60
2023/12/02 12:28:11;;;;;;;17.52;15.93;;;;;;;;;;4979017;28;20234;-60
2023/12/02 12:30:45;;;;;;;17.00;15.50;;;;;;;;;;4978791;28;20227;-60
2023/12/02 12:33:13;;;;;;;16.80;15.30;;;;;;;;;;4979083;28;20219;-60
2023/12/02 12:35:41;;;;;;;16.45;14.88;;;;;;;;;;4980198;28;20207;-60
2023/12/02 12:38:09;;;;;;;15.75;14.25;;;;;;;;;;4978370;28;20227;-61
2023/12/02 12:40:37;;;;;;;15.55;14.05;;;;;;;;;;4979099;28;20761;-60
2023/12/02 12:43:08;;;;;;;15.10;13.75;;;;;;;;;;4979207;28;20495;-59
2023/12/02 12:45:35;;;;;;;15.38;13.98;;;;;;;;;;4979576;28;20290;-59
2023/12/02 12:48:05;;;;;;;14.30;12.93;;;;;;;;;;4979729;28;20208;-59
2023/12/02 12:50:33;;;;;;;14.70;13.40;;;;;;;;;;4979282;28;20234;-60
2023/12/02 12:53:04;;;;;;;13.90;12.70;;;;;;;;;;4970221;28;20200;-60
2023/12/02 12:55:32;;;;;;;14.07;12.88;;;;;;;;;;4978630;28;20712;-60
2023/12/02 12:58:02;;;;;;;14.38;12.98;;;;;;;;;;4978366;28;20239;-60
2023/12/02 13:00:34;;;;;;;14.05;12.60;;;;;;;;;;4978199;28;20588;-60
2023/12/02 13:03:13;;;;;;;13.13;11.93;;;;;;;;;;4978282;28;20577;-60
2023/12/02 13:05:43;;;;;;;13.57;12.30;;;;;;;;;;4978241;28;20302;-61
2023/12/02 13:08:15;;;;;;;13.77;12.27;;;;;;;;;;4978241;28;20199;-61
2023/12/02 13:10:44;;;;;;;12.43;11.15;;;;;;;;;;4978283;28;20219;-60
2023/12/02 13:13:13;;;;;;;14.13;12.80;;;;;;;;;;4978729;28;20208;-60
2023/12/02 13:15:44;;;;;;;16.85;13.77;;;;;;;;;;4978576;28;20262;-59
2023/12/02 13:18:13;;;;;;;20.90;13.70;;;;;;;;;;4978354;28;20224;-59
2023/12/02 13:20:42;;;;;;;19.65;14.75;;;;;;;;;;4977918;28;20514;-59
2023/12/02 13:23:12;;;;;;;22.02;15.13;;;;;;;;;;4976469;28;20599;-59
2023/12/02 13:25:39;;;;;;;19.90;13.98;;;;;;;;;;4977815;28;20219;-60
2023/12/02 13:28:07;;;;;;;22.80;14.88;;;;;;;;;;4978467;28;20204;-60
2023/12/02 13:30:37;;;;;;;21.83;15.48;;;;;;;;;;4978412;28;20239;-61
2023/12/02 13:33:12;;;;;;;29.52;16.00;;;;;;;;;;4978965;28;20239;-61
2023/12/02 13:35:41;;;;;;;25.20;15.70;;;;;;;;;;4977686;28;20253;-61
2023/12/02 13:38:18;;;;;;;25.45;14.85;;;;;;;;;;4993083;28;20247;-61
2023/12/02 13:40:49;;;;;;;27.95;16.45;;;;;;;;;;4997837;28;20206;-61
2023/12/02 13:43:17;;;;;;;24.48;14.85;;;;;;;;;;4997408;28;20317;-61
2023/12/02 13:45:51;;;;;;;29.17;16.30;;;;;;;;;;4998026;28;20219;-61
2023/12/02 13:48:23;;;;;;;29.33;15.30;;;;;;;;;;4997558;28;20494;-61
2023/12/02 13:50:55;;;;;;;24.77;14.45;;;;;;;;;;4996453;28;20229;-61
2023/12/02 13:53:29;;;;;;;27.13;15.48;;;;;;;;;;4996666;28;20266;-61
2023/12/02 13:56:00;;;;;;;29.30;15.70;;;;;;;;;;4997260;28;20238;-61
2023/12/02 13:58:32;;;;;;;28.60;15.63;;;;;;;;;;4996601;28;20301;-61
2023/12/02 14:01:04;;;;;;;31.90;15.48;;;;;;;;;;4996708;28;20206;-61
2023/12/02 14:04:05;;;;;;;31.67;15.93;;;;;;;;;;4995492;28;20218;-61
2023/12/02 14:06:39;;;;;;;28.98;15.02;;;;;;;;;;4917307;29;20205;-61
2023/12/02 14:09:08;;;;;;;27.00;14.57;;;;;;;;;;4916067;29;20217;-61
2023/12/02 14:11:43;;;;;;;26.52;15.23;;;;;;;;;;4956359;28;20231;-61
2023/12/02 14:14:19;;;;;;;23.75;14.73;;;;;;;;;;4996533;28;20593;-61
2023/12/02 14:16:53;;;;;;;25.80;14.27;;;;;;;;;;4995840;28;20215;-61
2023/12/02 14:19:45;;;;;;;24.83;14.85;;;;;;;;;;4997063;28;20206;-61
2023/12/02 14:22:22;;;;;;;25.77;14.60;;;;;;;;;;4996144;28;20203;-61
2023/12/02 14:25:04;;;;;;;24.23;13.93;;;;;;;;;;4995945;28;20203;-61
2023/12/02 14:27:43;;;;;;;26.15;14.52;;;;;;;;;;4995357;28;20215;-61
2023/12/02 14:30:26;;;;;;;26.27;13.95;;;;;;;;;;4995224;28;20297;-61
2023/12/02 14:33:01;;;;;;;22.00;13.00;;;;;;;;;;4995836;28;20246;-61
2023/12/02 14:35:39;;;;;;;23.55;13.70;;;;;;;;;;4996029;28;20218;-61
2023/12/02 14:38:19;;;;;;;22.65;12.65;;;;;;;;;;4994892;28;20349;-61
2023/12/02 14:40:54;;;;;;;24.77;13.30;;;;;;;;;;4996516;28;20211;-61
2023/12/02 14:43:29;;;;;;;22.55;12.23;;;;;;;;;;4995773;28;20230;-61
2023/12/02 14:45:58;;;;;;;18.52;12.20;;;;;;;;;;4994890;28;20198;-61